sensor_id;sensor_type;location;lat;lon;timestamp;P1;durP1;ratioP1;P2;durP2;ratioP2
15555;SDS011;7879;48.660;9.116;2023-04-21T00:01:52;0.20;;;0.20;;
15555;SDS011;7879;48.660;9.116;2023-04-21T00:04:20;0.30;;;0.30;;
15555;SDS011;7879;48.660;9.116;2023-04-21T00:06:47;0.30;;;0.30;;
15555;SDS011;7879;48.660;9.116;2023-04-21T00:09:15;0.30;;;0.30;;
15555;SDS011;7879;48.660;9.116;2023-04-21T00:11:44;0.30;;;0.30;;
15555;SDS011;7879;48.660;9.116;2023-04-21T00:14:11;0.30;;;0.30;;
15555;SDS011;7879;48.660;9.116;2023-04-21T00:16:38;0.30;;;0.30;;
15555;SDS011;7879;48.660;9.116;2023-04-21T00:19:04;0.30;;;0.30;;
15555;SDS011;7879;48.660;9.116;2023-04-21T00:21:33;0.20;;;0.20;;
15555;SDS011;7879;48.660;9.116;2023-04-21T00:24:00;0.30;;;0.30;;
15555;SDS011;7879;48.660;9.116;2023-04-21T00:26:27;0.30;;;0.30;;
15555;SDS011;7879;48.660;9.116;2023-04-21T00:28:54;0.20;;;0.20;;
15555;SDS011;7879;48.660;9.116;2023-04-21T00:31:21;0.20;;;0.20;;
15555;SDS011;7879;48.660;9.116;2023-04-21T00:33:48;0.20;;;0.20;;
15555;SDS011;7879;48.660;9.116;2023-04-21T00:36:15;0.20;;;0.20;;
15555;SDS011;7879;48.660;9.116;2023-04-21T00:38:41;0.20;;;0.20;;
15555;SDS011;7879;48.660;9.116;2023-04-21T00:41:08;0.20;;;0.20;;
15555;SDS011;7879;48.660;9.116;2023-04-21T00:43:35;0.20;;;0.20;;
15555;SDS011;7879;48.660;9.116;2023-04-21T00:46:02;0.20;;;0.20;;
15555;SDS011;7879;48.660;9.116;2023-04-21T00:48:29;0.25;;;0.25;;
15555;SDS011;7879;48.660;9.116;2023-04-21T00:50:56;0.30;;;0.30;;
15555;SDS011;7879;48.660;9.116;2023-04-21T00:53:23;0.30;;;0.30;;
15555;SDS011;7879;48.660;9.116;2023-04-21T00:55:50;0.30;;;0.30;;
15555;SDS011;7879;48.660;9.116;2023-04-21T00:58:17;0.40;;;0.40;;
15555;SDS011;7879;48.660;9.116;2023-04-21T01:00:43;0.30;;;0.30;;
15555;SDS011;7879;48.660;9.116;2023-04-21T01:03:10;0.30;;;0.30;;
15555;SDS011;7879;48.660;9.116;2023-04-21T01:05:38;0.30;;;0.30;;
15555;SDS011;7879;48.660;9.116;2023-04-21T01:08:05;0.30;;;0.30;;
15555;SDS011;7879;48.660;9.116;2023-04-21T01:10:32;0.30;;;0.30;;
15555;SDS011;7879;48.660;9.116;2023-04-21T01:12:58;0.30;;;0.30;;
15555;SDS011;7879;48.660;9.116;2023-04-21T01:15:25;0.30;;;0.30;;
15555;SDS011;7879;48.660;9.116;2023-04-21T01:17:56;0.30;;;0.30;;
15555;SDS011;7879;48.660;9.116;2023-04-21T01:20:23;0.30;;;0.30;;
15555;SDS011;7879;48.660;9.116;2023-04-21T01:22:50;0.30;;;0.30;;
15555;SDS011;7879;48.660;9.116;2023-04-21T01:25:17;0.30;;;0.30;;
15555;SDS011;7879;48.660;9.116;2023-04-21T01:27:46;0.30;;;0.30;;
15555;SDS011;7879;48.660;9.116;2023-04-21T01:30:13;0.30;;;0.30;;
15555;SDS011;7879;48.660;9.116;2023-04-21T01:32:40;0.40;;;0.40;;
15555;SDS011;7879;48.660;9.116;2023-04-21T01:35:06;0.38;;;0.38;;
15555;SDS011;7879;48.660;9.116;2023-04-21T01:37:34;0.35;;;0.35;;
15555;SDS011;7879;48.660;9.116;2023-04-21T01:40:02;0.35;;;0.35;;
15555;SDS011;7879;48.660;9.116;2023-04-21T01:42:32;0.40;;;0.40;;
15555;SDS011;7879;48.660;9.116;2023-04-21T01:45:00;0.30;;;0.30;;
15555;SDS011;7879;48.660;9.116;2023-04-21T01:47:28;0.40;;;0.40;;
15555;SDS011;7879;48.660;9.116;2023-04-21T01:49:54;0.40;;;0.40;;
15555;SDS011;7879;48.660;9.116;2023-04-21T01:52:21;0.30;;;0.30;;
15555;SDS011;7879;48.660;9.116;2023-04-21T01:54:49;0.30;;;0.30;;
15555;SDS011;7879;48.660;9.116;2023-04-21T01:57:16;0.30;;;0.30;;
15555;SDS011;7879;48.660;9.116;2023-04-21T01:59:43;0.20;;;0.20;;
15555;SDS011;7879;48.660;9.116;2023-04-21T02:02:10;0.20;;;0.20;;
15555;SDS011;7879;48.660;9.116;2023-04-21T02:04:37;0.20;;;0.20;;
15555;SDS011;7879;48.660;9.116;2023-04-21T02:07:04;0.30;;;0.30;;
15555;SDS011;7879;48.660;9.116;2023-04-21T02:09:31;0.30;;;0.30;;
15555;SDS011;7879;48.660;9.116;2023-04-21T02:11:57;0.30;;;0.30;;
15555;SDS011;7879;48.660;9.116;2023-04-21T02:14:25;0.30;;;0.30;;
15555;SDS011;7879;48.660;9.116;2023-04-21T02:16:52;0.30;;;0.30;;
15555;SDS011;7879;48.660;9.116;2023-04-21T02:19:21;0.30;;;0.30;;
15555;SDS011;7879;48.660;9.116;2023-04-21T02:21:48;0.30;;;0.30;;
15555;SDS011;7879;48.660;9.116;2023-04-21T02:24:15;0.30;;;0.30;;
15555;SDS011;7879;48.660;9.116;2023-04-21T02:26:42;0.30;;;0.30;;
15555;SDS011;7879;48.660;9.116;2023-04-21T02:29:09;0.40;;;0.40;;
15555;SDS011;7879;48.660;9.116;2023-04-21T02:31:36;0.30;;;0.30;;
15555;SDS011;7879;48.660;9.116;2023-04-21T02:34:22;0.35;;;0.35;;
15555;SDS011;7879;48.660;9.116;2023-04-21T02:36:49;0.40;;;0.40;;
15555;SDS011;7879;48.660;9.116;2023-04-21T02:39:16;0.40;;;0.40;;
15555;SDS011;7879;48.660;9.116;2023-04-21T02:41:43;0.40;;;0.40;;
15555;SDS011;7879;48.660;9.116;2023-04-21T02:44:10;0.40;;;0.40;;
15555;SDS011;7879;48.660;9.116;2023-04-21T02:46:39;0.30;;;0.30;;
15555;SDS011;7879;48.660;9.116;2023-04-21T02:49:07;0.30;;;0.30;;
15555;SDS011;7879;48.660;9.116;2023-04-21T02:51:35;0.22;;;0.22;;
15555;SDS011;7879;48.660;9.116;2023-04-21T02:54:02;0.30;;;0.30;;
15555;SDS011;7879;48.660;9.116;2023-04-21T02:56:29;0.30;;;0.30;;
15555;SDS011;7879;48.660;9.116;2023-04-21T02:58:56;0.20;;;0.20;;
15555;SDS011;7879;48.660;9.116;2023-04-21T03:01:23;0.30;;;0.30;;
15555;SDS011;7879;48.660;9.116;2023-04-21T03:03:50;0.30;;;0.30;;
15555;SDS011;7879;48.660;9.116;2023-04-21T03:06:17;0.30;;;0.30;;
15555;SDS011;7879;48.660;9.116;2023-04-21T03:08:44;0.30;;;0.30;;
15555;SDS011;7879;48.660;9.116;2023-04-21T03:11:11;0.30;;;0.30;;
15555;SDS011;7879;48.660;9.116;2023-04-21T03:13:38;0.30;;;0.30;;
15555;SDS011;7879;48.660;9.116;2023-04-21T03:16:05;0.30;;;0.30;;
15555;SDS011;7879;48.660;9.116;2023-04-21T03:18:33;0.40;;;0.40;;
15555;SDS011;7879;48.660;9.116;2023-04-21T03:21:01;0.30;;;0.30;;
15555;SDS011;7879;48.660;9.116;2023-04-21T03:23:28;0.40;;;0.40;;
15555;SDS011;7879;48.660;9.116;2023-04-21T03:25:55;0.40;;;0.40;;
15555;SDS011;7879;48.660;9.116;2023-04-21T03:28:22;0.30;;;0.30;;
15555;SDS011;7879;48.660;9.116;2023-04-21T03:30:49;0.30;;;0.30;;
15555;SDS011;7879;48.660;9.116;2023-04-21T03:33:16;0.30;;;0.30;;
15555;SDS011;7879;48.660;9.116;2023-04-21T03:35:43;0.20;;;0.20;;
15555;SDS011;7879;48.660;9.116;2023-04-21T03:38:10;0.22;;;0.22;;
15555;SDS011;7879;48.660;9.116;2023-04-21T03:40:37;0.22;;;0.22;;
15555;SDS011;7879;48.660;9.116;2023-04-21T03:43:03;0.30;;;0.30;;
15555;SDS011;7879;48.660;9.116;2023-04-21T03:45:30;0.30;;;0.30;;
15555;SDS011;7879;48.660;9.116;2023-04-21T03:47:57;0.30;;;0.30;;
15555;SDS011;7879;48.660;9.116;2023-04-21T03:50:24;0.30;;;0.30;;
15555;SDS011;7879;48.660;9.116;2023-04-21T03:52:51;0.30;;;0.30;;
15555;SDS011;7879;48.660;9.116;2023-04-21T03:55:18;0.30;;;0.30;;
15555;SDS011;7879;48.660;9.116;2023-04-21T03:57:45;0.30;;;0.30;;
15555;SDS011;7879;48.660;9.116;2023-04-21T04:00:12;0.30;;;0.30;;
15555;SDS011;7879;48.660;9.116;2023-04-21T04:02:39;0.30;;;0.30;;
15555;SDS011;7879;48.660;9.116;2023-04-21T04:05:06;0.30;;;0.30;;
15555;SDS011;7879;48.660;9.116;2023-04-21T04:07:34;0.30;;;0.30;;
15555;SDS011;7879;48.660;9.116;2023-04-21T04:10:01;0.40;;;0.40;;
15555;SDS011;7879;48.660;9.116;2023-04-21T04:12:29;0.40;;;0.40;;
15555;SDS011;7879;48.660;9.116;2023-04-21T04:14:56;0.30;;;0.30;;
15555;SDS011;7879;48.660;9.116;2023-04-21T04:17:23;0.30;;;0.30;;
15555;SDS011;7879;48.660;9.116;2023-04-21T04:19:50;0.30;;;0.30;;
15555;SDS011;7879;48.660;9.116;2023-04-21T04:22:17;0.30;;;0.30;;
15555;SDS011;7879;48.660;9.116;2023-04-21T04:24:44;0.20;;;0.20;;
15555;SDS011;7879;48.660;9.116;2023-04-21T04:27:13;0.30;;;0.30;;
15555;SDS011;7879;48.660;9.116;2023-04-21T04:29:40;0.20;;;0.20;;
15555;SDS011;7879;48.660;9.116;2023-04-21T04:32:07;0.20;;;0.20;;
15555;SDS011;7879;48.660;9.116;2023-04-21T04:34:36;0.30;;;0.30;;
15555;SDS011;7879;48.660;9.116;2023-04-21T04:37:03;0.30;;;0.30;;
15555;SDS011;7879;48.660;9.116;2023-04-21T04:39:30;0.30;;;0.30;;
15555;SDS011;7879;48.660;9.116;2023-04-21T04:41:57;0.30;;;0.30;;
15555;SDS011;7879;48.660;9.116;2023-04-21T04:44:24;0.30;;;0.30;;
15555;SDS011;7879;48.660;9.116;2023-04-21T04:46:51;0.30;;;0.30;;
15555;SDS011;7879;48.660;9.116;2023-04-21T04:49:20;0.30;;;0.30;;
15555;SDS011;7879;48.660;9.116;2023-04-21T04:51:49;0.30;;;0.30;;
15555;SDS011;7879;48.660;9.116;2023-04-21T04:54:16;0.30;;;0.30;;
15555;SDS011;7879;48.660;9.116;2023-04-21T04:56:43;0.30;;;0.30;;
15555;SDS011;7879;48.660;9.116;2023-04-21T04:59:10;0.30;;;0.30;;
15555;SDS011;7879;48.660;9.116;2023-04-21T05:01:37;0.30;;;0.30;;
15555;SDS011;7879;48.660;9.116;2023-04-21T05:04:06;0.30;;;0.30;;
15555;SDS011;7879;48.660;9.116;2023-04-21T05:06:33;0.30;;;0.30;;
15555;SDS011;7879;48.660;9.116;2023-04-21T05:09:00;0.30;;;0.30;;
15555;SDS011;7879;48.660;9.116;2023-04-21T05:11:27;0.30;;;0.30;;
15555;SDS011;7879;48.660;9.116;2023-04-21T05:13:54;0.30;;;0.30;;
15555;SDS011;7879;48.660;9.116;2023-04-21T05:16:21;0.30;;;0.30;;
15555;SDS011;7879;48.660;9.116;2023-04-21T05:18:48;0.38;;;0.38;;
15555;SDS011;7879;48.660;9.116;2023-04-21T05:21:21;0.30;;;0.30;;
15555;SDS011;7879;48.660;9.116;2023-04-21T05:23:54;0.30;;;0.30;;
15555;SDS011;7879;48.660;9.116;2023-04-21T05:26:23;0.30;;;0.30;;
15555;SDS011;7879;48.660;9.116;2023-04-21T05:28:51;0.30;;;0.30;;
15555;SDS011;7879;48.660;9.116;2023-04-21T05:31:18;0.30;;;0.30;;
15555;SDS011;7879;48.660;9.116;2023-04-21T05:33:45;0.30;;;0.30;;
15555;SDS011;7879;48.660;9.116;2023-04-21T05:36:12;0.30;;;0.30;;
15555;SDS011;7879;48.660;9.116;2023-04-21T05:38:39;0.30;;;0.30;;
15555;SDS011;7879;48.660;9.116;2023-04-21T05:41:11;0.30;;;0.30;;
15555;SDS011;7879;48.660;9.116;2023-04-21T05:43:38;0.30;;;0.30;;
15555;SDS011;7879;48.660;9.116;2023-04-21T05:46:09;0.20;;;0.20;;
15555;SDS011;7879;48.660;9.116;2023-04-21T05:48:36;0.30;;;0.30;;
15555;SDS011;7879;48.660;9.116;2023-04-21T05:51:07;0.20;;;0.20;;
15555;SDS011;7879;48.660;9.116;2023-04-21T05:53:37;0.20;;;0.20;;
15555;SDS011;7879;48.660;9.116;2023-04-21T05:56:05;0.20;;;0.20;;
15555;SDS011;7879;48.660;9.116;2023-04-21T05:58:34;0.20;;;0.20;;
15555;SDS011;7879;48.660;9.116;2023-04-21T06:01:02;0.20;;;0.20;;
15555;SDS011;7879;48.660;9.116;2023-04-21T06:03:30;0.30;;;0.30;;
15555;SDS011;7879;48.660;9.116;2023-04-21T06:06:03;0.30;;;0.30;;
15555;SDS011;7879;48.660;9.116;2023-04-21T06:08:47;0.30;;;0.30;;
15555;SDS011;7879;48.660;9.116;2023-04-21T06:11:15;0.30;;;0.30;;
15555;SDS011;7879;48.660;9.116;2023-04-21T06:13:45;0.30;;;0.30;;
15555;SDS011;7879;48.660;9.116;2023-04-21T06:16:43;0.20;;;0.20;;
15555;SDS011;7879;48.660;9.116;2023-04-21T06:19:13;0.20;;;0.20;;
15555;SDS011;7879;48.660;9.116;2023-04-21T06:21:43;0.20;;;0.20;;
15555;SDS011;7879;48.660;9.116;2023-04-21T06:24:11;0.30;;;0.30;;
15555;SDS011;7879;48.660;9.116;2023-04-21T06:26:42;0.30;;;0.30;;
15555;SDS011;7879;48.660;9.116;2023-04-21T06:29:12;0.30;;;0.30;;
15555;SDS011;7879;48.660;9.116;2023-04-21T06:31:57;0.30;;;0.30;;
15555;SDS011;7879;48.660;9.116;2023-04-21T06:34:30;0.20;;;0.20;;
15555;SDS011;7879;48.660;9.116;2023-04-21T06:37:02;0.20;;;0.20;;
15555;SDS011;7879;48.660;9.116;2023-04-21T06:39:32;0.30;;;0.30;;
15555;SDS011;7879;48.660;9.116;2023-04-21T06:42:04;0.30;;;0.30;;
15555;SDS011;7879;48.660;9.116;2023-04-21T06:44:43;0.28;;;0.28;;
15555;SDS011;7879;48.660;9.116;2023-04-21T06:47:20;0.20;;;0.20;;
15555;SDS011;7879;48.660;9.116;2023-04-21T06:49:50;0.20;;;0.20;;
15555;SDS011;7879;48.660;9.116;2023-04-21T06:52:24;0.30;;;0.30;;
15555;SDS011;7879;48.660;9.116;2023-04-21T06:54:53;0.30;;;0.30;;
15555;SDS011;7879;48.660;9.116;2023-04-21T06:57:23;0.20;;;0.20;;
15555;SDS011;7879;48.660;9.116;2023-04-21T06:59:50;0.20;;;0.20;;
15555;SDS011;7879;48.660;9.116;2023-04-21T07:02:18;0.10;;;0.10;;
15555;SDS011;7879;48.660;9.116;2023-04-21T07:04:48;0.20;;;0.20;;
15555;SDS011;7879;48.660;9.116;2023-04-21T07:07:16;0.30;;;0.30;;
15555;SDS011;7879;48.660;9.116;2023-04-21T07:10:00;0.20;;;0.20;;
15555;SDS011;7879;48.660;9.116;2023-04-21T07:12:28;0.10;;;0.10;;
15555;SDS011;7879;48.660;9.116;2023-04-21T07:14:55;0.22;;;0.22;;
15555;SDS011;7879;48.660;9.116;2023-04-21T07:17:22;0.30;;;0.30;;
15555;SDS011;7879;48.660;9.116;2023-04-21T07:19:49;0.20;;;0.20;;
15555;SDS011;7879;48.660;9.116;2023-04-21T07:22:16;0.20;;;0.20;;
15555;SDS011;7879;48.660;9.116;2023-04-21T07:24:43;0.20;;;0.20;;
15555;SDS011;7879;48.660;9.116;2023-04-21T07:27:15;0.30;;;0.30;;
15555;SDS011;7879;48.660;9.116;2023-04-21T07:29:47;0.20;;;0.20;;
15555;SDS011;7879;48.660;9.116;2023-04-21T07:32:14;0.20;;;0.20;;
15555;SDS011;7879;48.660;9.116;2023-04-21T07:34:42;0.30;;;0.30;;
15555;SDS011;7879;48.660;9.116;2023-04-21T07:37:13;0.20;;;0.20;;
15555;SDS011;7879;48.660;9.116;2023-04-21T07:39:42;0.20;;;0.20;;
15555;SDS011;7879;48.660;9.116;2023-04-21T07:42:11;0.20;;;0.20;;
15555;SDS011;7879;48.660;9.116;2023-04-21T07:44:43;0.20;;;0.20;;
15555;SDS011;7879;48.660;9.116;2023-04-21T07:47:10;0.20;;;0.20;;
15555;SDS011;7879;48.660;9.116;2023-04-21T07:49:37;0.10;;;0.10;;
15555;SDS011;7879;48.660;9.116;2023-04-21T07:52:08;0.10;;;0.10;;
15555;SDS011;7879;48.660;9.116;2023-04-21T07:54:37;0.20;;;0.20;;
15555;SDS011;7879;48.660;9.116;2023-04-21T07:57:04;0.10;;;0.10;;
15555;SDS011;7879;48.660;9.116;2023-04-21T07:59:35;0.20;;;0.20;;
15555;SDS011;7879;48.660;9.116;2023-04-21T08:02:02;0.10;;;0.10;;
15555;SDS011;7879;48.660;9.116;2023-04-21T08:04:29;0.20;;;0.20;;
15555;SDS011;7879;48.660;9.116;2023-04-21T08:07:00;0.10;;;0.10;;
15555;SDS011;7879;48.660;9.116;2023-04-21T08:09:27;0.10;;;0.10;;
15555;SDS011;7879;48.660;9.116;2023-04-21T08:11:54;0.20;;;0.20;;
15555;SDS011;7879;48.660;9.116;2023-04-21T08:14:23;0.10;;;0.10;;
15555;SDS011;7879;48.660;9.116;2023-04-21T08:16:52;0.10;;;0.10;;
15555;SDS011;7879;48.660;9.116;2023-04-21T08:19:22;0.20;;;0.20;;
15555;SDS011;7879;48.660;9.116;2023-04-21T08:21:50;0.10;;;0.10;;
15555;SDS011;7879;48.660;9.116;2023-04-21T08:24:17;0.10;;;0.10;;
15555;SDS011;7879;48.660;9.116;2023-04-21T08:26:44;0.10;;;0.10;;
15555;SDS011;7879;48.660;9.116;2023-04-21T08:29:14;0.20;;;0.20;;
15555;SDS011;7879;48.660;9.116;2023-04-21T08:31:41;0.10;;;0.10;;
15555;SDS011;7879;48.660;9.116;2023-04-21T08:34:08;0.10;;;0.10;;
15555;SDS011;7879;48.660;9.116;2023-04-21T08:36:38;0.10;;;0.10;;
15555;SDS011;7879;48.660;9.116;2023-04-21T08:39:06;0.20;;;0.20;;
15555;SDS011;7879;48.660;9.116;2023-04-21T08:41:33;0.10;;;0.10;;
15555;SDS011;7879;48.660;9.116;2023-04-21T08:44:01;0.10;;;0.10;;
15555;SDS011;7879;48.660;9.116;2023-04-21T08:46:28;0.10;;;0.10;;
15555;SDS011;7879;48.660;9.116;2023-04-21T08:48:57;0.10;;;0.10;;
15555;SDS011;7879;48.660;9.116;2023-04-21T08:51:26;0.20;;;0.20;;
15555;SDS011;7879;48.660;9.116;2023-04-21T08:53:54;0.10;;;0.10;;
15555;SDS011;7879;48.660;9.116;2023-04-21T08:56:23;0.10;;;0.10;;
15555;SDS011;7879;48.660;9.116;2023-04-21T08:58:51;0.10;;;0.10;;
15555;SDS011;7879;48.660;9.116;2023-04-21T09:01:19;0.10;;;0.10;;
15555;SDS011;7879;48.660;9.116;2023-04-21T09:03:49;0.10;;;0.10;;
15555;SDS011;7879;48.660;9.116;2023-04-21T09:06:17;0.10;;;0.10;;
15555;SDS011;7879;48.660;9.116;2023-04-21T09:08:54;0.10;;;0.10;;
15555;SDS011;7879;48.660;9.116;2023-04-21T09:11:22;0.10;;;0.10;;
15555;SDS011;7879;48.660;9.116;2023-04-21T09:13:56;0.00;;;0.00;;
15555;SDS011;7879;48.660;9.116;2023-04-21T09:16:33;0.00;;;0.00;;
15555;SDS011;7879;48.660;9.116;2023-04-21T09:19:02;0.00;;;0.00;;
15555;SDS011;7879;48.660;9.116;2023-04-21T09:21:44;0.00;;;0.00;;
15555;SDS011;7879;48.660;9.116;2023-04-21T09:24:11;0.00;;;0.00;;
15555;SDS011;7879;48.660;9.116;2023-04-21T09:26:39;0.00;;;0.00;;
15555;SDS011;7879;48.660;9.116;2023-04-21T09:29:08;0.00;;;0.00;;
15555;SDS011;7879;48.660;9.116;2023-04-21T09:31:38;0.00;;;0.00;;
15555;SDS011;7879;48.660;9.116;2023-04-21T09:34:15;0.00;;;0.00;;
15555;SDS011;7879;48.660;9.116;2023-04-21T09:36:46;0.00;;;0.00;;
15555;SDS011;7879;48.660;9.116;2023-04-21T09:39:13;0.00;;;0.00;;
15555;SDS011;7879;48.660;9.116;2023-04-21T09:42:00;0.00;;;0.00;;
15555;SDS011;7879;48.660;9.116;2023-04-21T09:44:27;0.00;;;0.00;;
15555;SDS011;7879;48.660;9.116;2023-04-21T09:47:08;0.00;;;0.00;;
15555;SDS011;7879;48.660;9.116;2023-04-21T09:49:45;0.00;;;0.00;;
15555;SDS011;7879;48.660;9.116;2023-04-21T09:52:19;0.00;;;0.00;;
15555;SDS011;7879;48.660;9.116;2023-04-21T09:54:51;0.00;;;0.00;;
15555;SDS011;7879;48.660;9.116;2023-04-21T09:57:28;0.00;;;0.00;;
15555;SDS011;7879;48.660;9.116;2023-04-21T10:00:02;0.00;;;0.00;;
15555;SDS011;7879;48.660;9.116;2023-04-21T10:02:34;0.00;;;0.00;;
15555;SDS011;7879;48.660;9.116;2023-04-21T10:05:08;0.00;;;0.00;;
15555;SDS011;7879;48.660;9.116;2023-04-21T10:07:36;0.00;;;0.00;;
15555;SDS011;7879;48.660;9.116;2023-04-21T10:10:05;0.00;;;0.00;;
15555;SDS011;7879;48.660;9.116;2023-04-21T10:12:34;0.00;;;0.00;;
15555;SDS011;7879;48.660;9.116;2023-04-21T10:15:27;0.00;;;0.00;;
15555;SDS011;7879;48.660;9.116;2023-04-21T10:18:11;0.00;;;0.00;;
15555;SDS011;7879;48.660;9.116;2023-04-21T10:20:50;0.00;;;0.00;;
15555;SDS011;7879;48.660;9.116;2023-04-21T10:26:32;0.00;;;0.00;;
15555;SDS011;7879;48.660;9.116;2023-04-21T10:29:02;0.00;;;0.00;;
15555;SDS011;7879;48.660;9.116;2023-04-21T10:36:42;0.00;;;0.00;;
15555;SDS011;7879;48.660;9.116;2023-04-21T10:39:54;0.00;;;0.00;;
15555;SDS011;7879;48.660;9.116;2023-04-21T10:45:06;0.00;;;0.00;;
15555;SDS011;7879;48.660;9.116;2023-04-21T10:47:44;0.00;;;0.00;;
15555;SDS011;7879;48.660;9.116;2023-04-21T10:50:16;0.00;;;0.00;;
15555;SDS011;7879;48.660;9.116;2023-04-21T10:52:45;0.00;;;0.00;;
15555;SDS011;7879;48.660;9.116;2023-04-21T10:55:26;0.00;;;0.00;;
15555;SDS011;7879;48.660;9.116;2023-04-21T10:57:54;0.00;;;0.00;;
15555;SDS011;7879;48.660;9.116;2023-04-21T11:00:22;0.00;;;0.00;;
15555;SDS011;7879;48.660;9.116;2023-04-21T11:02:55;0.00;;;0.00;;
15555;SDS011;7879;48.660;9.116;2023-04-21T11:05:36;0.00;;;0.00;;
15555;SDS011;7879;48.660;9.116;2023-04-21T11:08:12;0.00;;;0.00;;
15555;SDS011;7879;48.660;9.116;2023-04-21T11:10:40;0.00;;;0.00;;
15555;SDS011;7879;48.660;9.116;2023-04-21T11:13:09;0.00;;;0.00;;
15555;SDS011;7879;48.660;9.116;2023-04-21T11:15:58;0.00;;;0.00;;
15555;SDS011;7879;48.660;9.116;2023-04-21T11:18:32;0.00;;;0.00;;
15555;SDS011;7879;48.660;9.116;2023-04-21T11:21:10;0.00;;;0.00;;
15555;SDS011;7879;48.660;9.116;2023-04-21T11:23:54;0.00;;;0.00;;
15555;SDS011;7879;48.660;9.116;2023-04-21T11:26:31;0.00;;;0.00;;
15555;SDS011;7879;48.660;9.116;2023-04-21T11:29:00;0.00;;;0.00;;
15555;SDS011;7879;48.660;9.116;2023-04-21T11:31:46;0.00;;;0.00;;
15555;SDS011;7879;48.660;9.116;2023-04-21T11:34:18;0.00;;;0.00;;
15555;SDS011;7879;48.660;9.116;2023-04-21T11:36:47;0.00;;;0.00;;
15555;SDS011;7879;48.660;9.116;2023-04-21T11:39:17;0.00;;;0.00;;
15555;SDS011;7879;48.660;9.116;2023-04-21T11:41:48;0.00;;;0.00;;
15555;SDS011;7879;48.660;9.116;2023-04-21T11:46:59;0.00;;;0.00;;
15555;SDS011;7879;48.660;9.116;2023-04-21T11:49:52;0.00;;;0.00;;
15555;SDS011;7879;48.660;9.116;2023-04-21T11:52:33;0.00;;;0.00;;
15555;SDS011;7879;48.660;9.116;2023-04-21T11:55:04;0.00;;;0.00;;
15555;SDS011;7879;48.660;9.116;2023-04-21T11:57:32;0.00;;;0.00;;
15555;SDS011;7879;48.660;9.116;2023-04-21T12:00:00;0.00;;;0.00;;
15555;SDS011;7879;48.660;9.116;2023-04-21T12:02:34;0.00;;;0.00;;
15555;SDS011;7879;48.660;9.116;2023-04-21T12:05:02;0.00;;;0.00;;
15555;SDS011;7879;48.660;9.116;2023-04-21T12:07:40;0.00;;;0.00;;
15555;SDS011;7879;48.660;9.116;2023-04-21T12:10:09;0.00;;;0.00;;
15555;SDS011;7879;48.660;9.116;2023-04-21T12:12:42;0.00;;;0.00;;
15555;SDS011;7879;48.660;9.116;2023-04-21T12:15:11;0.00;;;0.00;;
15555;SDS011;7879;48.660;9.116;2023-04-21T12:17:45;0.00;;;0.00;;
15555;SDS011;7879;48.660;9.116;2023-04-21T12:20:17;0.00;;;0.00;;
15555;SDS011;7879;48.660;9.116;2023-04-21T12:22:45;0.00;;;0.00;;
15555;SDS011;7879;48.660;9.116;2023-04-21T12:25:13;0.00;;;0.00;;
15555;SDS011;7879;48.660;9.116;2023-04-21T12:27:47;0.00;;;0.00;;
15555;SDS011;7879;48.660;9.116;2023-04-21T12:30:16;0.00;;;0.00;;
15555;SDS011;7879;48.660;9.116;2023-04-21T12:32:47;0.00;;;0.00;;
15555;SDS011;7879;48.660;9.116;2023-04-21T12:35:14;0.00;;;0.00;;
15555;SDS011;7879;48.660;9.116;2023-04-21T12:37:43;0.00;;;0.00;;
15555;SDS011;7879;48.660;9.116;2023-04-21T12:40:10;0.00;;;0.00;;
15555;SDS011;7879;48.660;9.116;2023-04-21T12:42:37;0.00;;;0.00;;
15555;SDS011;7879;48.660;9.116;2023-04-21T12:45:04;0.00;;;0.00;;
15555;SDS011;7879;48.660;9.116;2023-04-21T12:47:32;0.00;;;0.00;;
15555;SDS011;7879;48.660;9.116;2023-04-21T12:49:59;0.00;;;0.00;;
15555;SDS011;7879;48.660;9.116;2023-04-21T12:52:26;0.00;;;0.00;;
15555;SDS011;7879;48.660;9.116;2023-04-21T12:54:56;0.00;;;0.00;;
15555;SDS011;7879;48.660;9.116;2023-04-21T12:57:23;0.00;;;0.00;;
15555;SDS011;7879;48.660;9.116;2023-04-21T12:59:50;0.00;;;0.00;;
15555;SDS011;7879;48.660;9.116;2023-04-21T13:02:17;0.00;;;0.00;;
15555;SDS011;7879;48.660;9.116;2023-04-21T13:04:45;0.00;;;0.00;;
15555;SDS011;7879;48.660;9.116;2023-04-21T13:07:12;0.00;;;0.00;;
15555;SDS011;7879;48.660;9.116;2023-04-21T13:09:45;0.00;;;0.00;;
15555;SDS011;7879;48.660;9.116;2023-04-21T13:12:12;0.00;;;0.00;;
15555;SDS011;7879;48.660;9.116;2023-04-21T13:14:39;0.00;;;0.00;;
15555;SDS011;7879;48.660;9.116;2023-04-21T13:17:06;0.00;;;0.00;;
15555;SDS011;7879;48.660;9.116;2023-04-21T13:19:33;0.00;;;0.00;;
15555;SDS011;7879;48.660;9.116;2023-04-21T13:22:00;0.00;;;0.00;;
15555;SDS011;7879;48.660;9.116;2023-04-21T13:24:27;0.00;;;0.00;;
15555;SDS011;7879;48.660;9.116;2023-04-21T13:26:55;0.00;;;0.00;;
15555;SDS011;7879;48.660;9.116;2023-04-21T13:29:22;0.00;;;0.00;;
15555;SDS011;7879;48.660;9.116;2023-04-21T13:31:49;0.00;;;0.00;;
15555;SDS011;7879;48.660;9.116;2023-04-21T13:34:16;0.00;;;0.00;;
15555;SDS011;7879;48.660;9.116;2023-04-21T13:36:43;0.00;;;0.00;;
15555;SDS011;7879;48.660;9.116;2023-04-21T13:39:10;0.00;;;0.00;;
15555;SDS011;7879;48.660;9.116;2023-04-21T13:41:37;0.00;;;0.00;;
15555;SDS011;7879;48.660;9.116;2023-04-21T13:44:04;0.00;;;0.00;;
15555;SDS011;7879;48.660;9.116;2023-04-21T13:46:31;0.10;;;0.10;;
15555;SDS011;7879;48.660;9.116;2023-04-21T13:48:58;0.00;;;0.00;;
15555;SDS011;7879;48.660;9.116;2023-04-21T13:51:25;0.00;;;0.00;;
15555;SDS011;7879;48.660;9.116;2023-04-21T13:53:52;0.00;;;0.00;;
15555;SDS011;7879;48.660;9.116;2023-04-21T13:56:18;0.00;;;0.00;;
15555;SDS011;7879;48.660;9.116;2023-04-21T13:58:48;0.00;;;0.00;;
15555;SDS011;7879;48.660;9.116;2023-04-21T14:01:15;0.00;;;0.00;;
15555;SDS011;7879;48.660;9.116;2023-04-21T14:03:46;0.00;;;0.00;;
15555;SDS011;7879;48.660;9.116;2023-04-21T14:06:13;0.00;;;0.00;;
15555;SDS011;7879;48.660;9.116;2023-04-21T14:08:40;0.10;;;0.10;;
15555;SDS011;7879;48.660;9.116;2023-04-21T14:11:07;0.00;;;0.00;;
15555;SDS011;7879;48.660;9.116;2023-04-21T14:13:34;0.00;;;0.00;;
15555;SDS011;7879;48.660;9.116;2023-04-21T14:16:17;0.00;;;0.00;;
15555;SDS011;7879;48.660;9.116;2023-04-21T14:18:44;0.00;;;0.00;;
15555;SDS011;7879;48.660;9.116;2023-04-21T14:21:13;0.00;;;0.00;;
15555;SDS011;7879;48.660;9.116;2023-04-21T14:23:43;0.00;;;0.00;;
15555;SDS011;7879;48.660;9.116;2023-04-21T14:26:09;0.00;;;0.00;;
15555;SDS011;7879;48.660;9.116;2023-04-21T14:28:37;0.00;;;0.00;;
15555;SDS011;7879;48.660;9.116;2023-04-21T14:31:03;0.00;;;0.00;;
15555;SDS011;7879;48.660;9.116;2023-04-21T14:33:30;0.00;;;0.00;;
15555;SDS011;7879;48.660;9.116;2023-04-21T14:35:58;0.10;;;0.10;;
15555;SDS011;7879;48.660;9.116;2023-04-21T14:38:26;0.00;;;0.00;;
15555;SDS011;7879;48.660;9.116;2023-04-21T14:40:55;0.00;;;0.00;;
15555;SDS011;7879;48.660;9.116;2023-04-21T14:43:22;0.00;;;0.00;;
15555;SDS011;7879;48.660;9.116;2023-04-21T14:45:49;0.00;;;0.00;;
15555;SDS011;7879;48.660;9.116;2023-04-21T14:48:16;0.00;;;0.00;;
15555;SDS011;7879;48.660;9.116;2023-04-21T14:50:43;0.00;;;0.00;;
15555;SDS011;7879;48.660;9.116;2023-04-21T14:53:09;0.00;;;0.00;;
15555;SDS011;7879;48.660;9.116;2023-04-21T14:55:36;0.00;;;0.00;;
15555;SDS011;7879;48.660;9.116;2023-04-21T14:58:03;0.00;;;0.00;;
15555;SDS011;7879;48.660;9.116;2023-04-21T15:00:30;0.00;;;0.00;;
15555;SDS011;7879;48.660;9.116;2023-04-21T15:02:59;0.00;;;0.00;;
15555;SDS011;7879;48.660;9.116;2023-04-21T15:05:26;0.00;;;0.00;;
15555;SDS011;7879;48.660;9.116;2023-04-21T15:07:53;0.00;;;0.00;;
15555;SDS011;7879;48.660;9.116;2023-04-21T15:10:20;0.00;;;0.00;;
15555;SDS011;7879;48.660;9.116;2023-04-21T15:12:47;0.00;;;0.00;;
15555;SDS011;7879;48.660;9.116;2023-04-21T15:15:14;0.03;;;0.03;;
15555;SDS011;7879;48.660;9.116;2023-04-21T15:17:41;0.00;;;0.00;;
15555;SDS011;7879;48.660;9.116;2023-04-21T15:20:08;0.08;;;0.08;;
15555;SDS011;7879;48.660;9.116;2023-04-21T15:22:35;0.00;;;0.00;;
15555;SDS011;7879;48.660;9.116;2023-04-21T15:25:04;0.00;;;0.00;;
15555;SDS011;7879;48.660;9.116;2023-04-21T15:27:31;0.00;;;0.00;;